Coral Leaf — PHNI — position and weather

sailwx.info

Track history (hours):
 
Tides and Currents Weather Stations Pressure Air Temp Water Temp Dewpoint Dewpoint Depression Visibility Wind Speed Wind Dir Waves Ship Positions

Coral Leaf

Last reported at 2015-May-04 17:10 UTC. Time now 2015-May-04 18:05 UTC.
Position N 59°07' E 009°38'.

Length 108 m; draft 5.1 m.

Type: Ship (hazmat cat A). MMSI: 244036000.

Date/timePositionNaut miles runAvg speedWind from/ knotsBaromVisibWave heightAir tempDewpointWater temp
2015-May-04 17:10N 59°07' E 009°38'0 0.0
2015-May-04 15:22N 59°06' E 009°38'0 0.2
2015-May-04 14:33N 59°06' E 009°38'8 7.9
2015-May-04 13:33N 59°01' E 009°48'9 9.3
2015-May-04 12:33N 58°52' E 009°48'7 6.6
2015-May-04 11:32N 58°45' E 009°46'4 3.9
2015-May-04 10:33N 58°41' E 009°45'31713.8
2015-May-03 11:31N 54°08' E 004°55'1313.6
2015-May-03 10:33N 53°55' E 004°52'1413.8
2015-May-03 09:33N 53°41' E 004°50'1313.5
2015-May-03 08:33N 53°28' E 004°44'1414.0
2015-May-03 07:31N 53°15' E 004°34'1414.3
2015-May-03 06:33N 53°03' E 004°24'1514.6
2015-May-03 05:32N 52°50' E 004°11'1414.3
2015-May-03 04:33N 52°39' E 003°58'1614.3
2015-May-03 03:27N 52°27' E 003°40'1414.7
2015-May-03 02:32N 52°15' E 003°30'1715.3
2015-May-03 01:24N 51°58' E 003°24'1615.0
2015-May-03 00:22N 51°43' E 003°18'1012.8
2015-May-02 23:34N 51°34' E 003°25'1110.6
2015-May-02 22:33N 51°26' E 003°37'1110.7
2015-May-02 21:33N 51°21' E 003°52'8 8.5
2015-May-02 20:34N 51°22' E 004°06'1110.5
2015-May-02 19:34N 51°17' E 004°20'0 0.1
2015-May-02 18:34N 51°17' E 004°20'1 0.9
2015-May-02 17:30N 51°16' E 004°20'0 0.0
2015-May-02 16:33N 51°16' E 004°20'0 0.0
2015-May-02 15:33N 51°16' E 004°20'0 0.0
2015-May-02 14:29N 51°16' E 004°20'0 0.0
2015-May-02 13:32N 51°16' E 004°20'0 0.0
2015-May-02 12:32N 51°16' E 004°20'0 0.0
2015-May-02 11:29N 51°16' E 004°20'0 0.0
2015-May-02 10:29N 51°16' E 004°20'0 0.0
2015-May-02 09:29N 51°16' E 004°20'0 0.0
2015-May-02 08:29N 51°16' E 004°20'0 0.0
2015-May-02 07:29N 51°16' E 004°20'0 0.0
2015-May-02 06:26N 51°16' E 004°20'0 0.0
2015-May-02 05:32N 51°16' E 004°20'0 0.0
2015-May-02 04:29N 51°16' E 004°20'0 0.0
2015-May-02 03:31N 51°16' E 004°20'0 0.0
2015-May-02 02:31N 51°16' E 004°20'0 0.0
2015-May-02 01:31N 51°16' E 004°20'0 0.0
2015-May-02 00:31N 51°16' E 004°20'0 0.0
2015-May-01 23:31N 51°16' E 004°20'0 0.0
2015-May-01 22:25N 51°16' E 004°20'0 0.0
2015-May-01 21:31N 51°16' E 004°20'0 0.0
2015-May-01 20:31N 51°16' E 004°20'3 3.0
2015-May-01 19:33N 51°19' E 004°19'3 2.6
2015-May-01 18:34N 51°21' E 004°17'0 0.1
2015-May-01 17:33N 51°21' E 004°17'2 1.7
2015-May-01 16:34N 51°21' E 004°14'7 7.2
2015-May-01 15:33N 51°23' E 004°03'6 6.3
2015-May-01 14:33N 51°21' E 003°53'1010.3
2015-May-01 13:34N 51°26' E 003°39'8 8.1
2015-May-01 12:34N 51°30' E 003°28'1211.5
2015-May-01 11:31N 51°40' E 003°18'7 7.3
2015-May-01 10:32N 51°47' E 003°21'0 0.1
2015-May-01 04:33N 51°47' E 003°20'1311.5
2015-May-01 03:27N 52°00' E 003°20'5711.0
2015-Apr-30 22:18N 52°53' E 003°53'912.2
2015-Apr-30 21:32N 52°60' E 004°04'1212.2
2015-Apr-30 20:33N 53°08' E 004°19'3210.4
2015-Apr-30 17:28N 53°32' E 004°53'9 9.8
2015-Apr-30 16:33N 53°35' E 005°07'10 9.8
2015-Apr-30 15:33N 53°38' E 005°23'10 9.7
2015-Apr-30 14:33N 53°41' E 005°39'1211.6
2015-Apr-30 13:33N 53°45' E 005°57'4814.1
2015-Apr-30 10:10N 53°58' E 007°15'812.8
2015-Apr-30 09:33N 53°60' E 007°28'1313.1
2015-Apr-30 08:33N 54°01' E 007°50'1312.8
2015-Apr-30 07:33N 54°01' E 008°12'1211.6
2015-Apr-30 06:33N 53°58' E 008°31'1111.2
2015-Apr-30 05:34N 53°51' E 008°46'1413.6
2015-Apr-30 04:33N 53°53' E 009°08'1 1.0
2015-Apr-30 03:33N 53°54' E 009°10'1 0.5
2015-Apr-30 02:33N 53°55' E 009°10'3 2.9
2015-Apr-30 01:33N 53°57' E 009°14'7 6.7
2015-Apr-30 00:33N 54°03' E 009°18'7 7.3
2015-Apr-29 23:32N 54°09' E 009°23'22 7.4
2015-Apr-29 20:33N 54°20' E 009°56'5 4.5
2015-Apr-29 19:33N 54°22' E 010°04'3 2.8
2015-Apr-29 18:33N 54°22' E 010°08'4 4.1
2015-Apr-29 17:33N 54°25' E 010°13'1312.7
2015-Apr-29 16:33N 54°33' E 010°30'1413.9
2015-Apr-29 15:32N 54°36' E 010°54'1414.1
2015-Apr-29 14:33N 54°34' E 011°17'1413.8
2015-Apr-29 13:33N 54°28' E 011°39'1313.2
2015-Apr-29 12:33N 54°26' E 012°02'1211.8
2015-Apr-29 11:33N 54°36' E 012°14'1313.4
2015-Apr-29 10:33N 54°44' E 012°33'1313.1
2015-Apr-29 09:33N 54°50' E 012°53'1312.8
2015-Apr-29 08:33N 54°54' E 013°14'1312.9
2015-Apr-29 07:33N 54°58' E 013°35'1312.2
2015-Apr-29 06:30N 55°03' E 013°56'1211.9
2015-Apr-29 05:31N 55°10' E 014°12'1212.4
2015-Apr-29 04:33N 55°19' E 014°25'1212.2
2015-Apr-29 03:33N 55°28' E 014°40'1312.6
2015-Apr-29 02:33N 55°34' E 014°59'1312.8
2015-Apr-29 01:33N 55°40' E 015°20'1313.0
2015-Apr-29 00:33N 55°47' E 015°39'1312.8
2015-Apr-28 23:33N 55°53' E 015°59'32313.3
2015-Apr-27 23:12N 59°36' E 023°16'1013.8
2015-Apr-27 22:27N 59°39' E 023°35'1313.9
2015-Apr-27 21:32N 59°43' E 023°60'1414.0
2015-Apr-27 20:33N 59°47' E 024°26'4212.2
2015-Apr-27 17:08N 60°10' E 025°35'712.4
2015-Apr-27 16:32N 60°17' E 025°33'46 1.4
2015-Apr-26 07:33N 59°44' E 024°30'2014.9
2015-Apr-26 06:15N 59°39' E 023°52'913.4
2015-Apr-26 05:33N 59°35' E 023°35'27213.6
2015-Apr-25 09:33N 56°23' E 017°31'7914.6
2015-Apr-25 04:09N 55°41' E 015°33'914.9
2015-Apr-25 03:33N 55°36' E 015°19'1514.6
2015-Apr-25 02:33N 55°29' E 014°56'1414.5
2015-Apr-25 01:33N 55°21' E 014°36'1514.8
2015-Apr-25 00:33N 55°09' E 014°20'1514.6
2015-Apr-24 23:33N 54°60' E 014°00'1414.5
2015-Apr-24 22:34N 54°54' E 013°37'1514.5
2015-Apr-24 21:33N 54°50' E 013°13'1414.4
2015-Apr-24 20:33N 54°45' E 012°49'1414.1
2015-Apr-24 19:33N 54°39' E 012°28'1413.7
2015-Apr-24 18:33N 54°28' E 012°14'1313.2
2015-Apr-24 17:33N 54°24' E 011°52'  
Track history (hours):
 
Tides and Currents Weather Stations Pressure Air Temp Water Temp Dewpoint Dewpoint Depression Visibility Wind Speed Wind Dir Waves Ship Positions

Coral Leaf

Last reported at 2015-May-04 17:10 UTC. Time now 2015-May-04 18:05 UTC.
Position N 59°07' E 009°38'.

Length 108 m; draft 5.1 m.

Type: Ship (hazmat cat A). MMSI: 244036000.

Date/timePositionNaut miles runAvg speedWind from/ knotsBaromVisibWave heightAir tempDewpointWater temp
2015-May-04 17:10N 59°07' E 009°38'0 0.0
2015-May-04 15:22N 59°06' E 009°38'0 0.2
2015-May-04 14:33N 59°06' E 009°38'8 7.9
2015-May-04 13:33N 59°01' E 009°48'9 9.3
2015-May-04 12:33N 58°52' E 009°48'7 6.6
2015-May-04 11:32N 58°45' E 009°46'4 3.9
2015-May-04 10:33N 58°41' E 009°45'31713.8
2015-May-03 11:31N 54°08' E 004°55'1313.6
2015-May-03 10:33N 53°55' E 004°52'1413.8
2015-May-03 09:33N 53°41' E 004°50'1313.5
2015-May-03 08:33N 53°28' E 004°44'1414.0
2015-May-03 07:31N 53°15' E 004°34'1414.3
2015-May-03 06:33N 53°03' E 004°24'1514.6
2015-May-03 05:32N 52°50' E 004°11'1414.3
2015-May-03 04:33N 52°39' E 003°58'1614.3
2015-May-03 03:27N 52°27' E 003°40'1414.7
2015-May-03 02:32N 52°15' E 003°30'1715.3
2015-May-03 01:24N 51°58' E 003°24'1615.0
2015-May-03 00:22N 51°43' E 003°18'1012.8
2015-May-02 23:34N 51°34' E 003°25'1110.6
2015-May-02 22:33N 51°26' E 003°37'1110.7
2015-May-02 21:33N 51°21' E 003°52'8 8.5
2015-May-02 20:34N 51°22' E 004°06'1110.5
2015-May-02 19:34N 51°17' E 004°20'0 0.1
2015-May-02 18:34N 51°17' E 004°20'1 0.9
2015-May-02 17:30N 51°16' E 004°20'0 0.0
2015-May-02 16:33N 51°16' E 004°20'0 0.0
2015-May-02 15:33N 51°16' E 004°20'0 0.0
2015-May-02 14:29N 51°16' E 004°20'0 0.0
2015-May-02 13:32N 51°16' E 004°20'0 0.0
2015-May-02 12:32N 51°16' E 004°20'0 0.0
2015-May-02 11:29N 51°16' E 004°20'0 0.0
2015-May-02 10:29N 51°16' E 004°20'0 0.0
2015-May-02 09:29N 51°16' E 004°20'0 0.0
2015-May-02 08:29N 51°16' E 004°20'0 0.0
2015-May-02 07:29N 51°16' E 004°20'0 0.0
2015-May-02 06:26N 51°16' E 004°20'0 0.0
2015-May-02 05:32N 51°16' E 004°20'0 0.0
2015-May-02 04:29N 51°16' E 004°20'0 0.0
2015-May-02 03:31N 51°16' E 004°20'0 0.0
2015-May-02 02:31N 51°16' E 004°20'0 0.0
2015-May-02 01:31N 51°16' E 004°20'0 0.0
2015-May-02 00:31N 51°16' E 004°20'0 0.0
2015-May-01 23:31N 51°16' E 004°20'0 0.0
2015-May-01 22:25N 51°16' E 004°20'0 0.0
2015-May-01 21:31N 51°16' E 004°20'0 0.0
2015-May-01 20:31N 51°16' E 004°20'3 3.0
2015-May-01 19:33N 51°19' E 004°19'3 2.6
2015-May-01 18:34N 51°21' E 004°17'0 0.1
2015-May-01 17:33N 51°21' E 004°17'2 1.7
2015-May-01 16:34N 51°21' E 004°14'7 7.2
2015-May-01 15:33N 51°23' E 004°03'6 6.3
2015-May-01 14:33N 51°21' E 003°53'1010.3
2015-May-01 13:34N 51°26' E 003°39'8 8.1
2015-May-01 12:34N 51°30' E 003°28'1211.5
2015-May-01 11:31N 51°40' E 003°18'7 7.3
2015-May-01 10:32N 51°47' E 003°21'0 0.1
2015-May-01 04:33N 51°47' E 003°20'1311.5
2015-May-01 03:27N 52°00' E 003°20'5711.0
2015-Apr-30 22:18N 52°53' E 003°53'912.2
2015-Apr-30 21:32N 52°60' E 004°04'1212.2
2015-Apr-30 20:33N 53°08' E 004°19'3210.4
2015-Apr-30 17:28N 53°32' E 004°53'9 9.8
2015-Apr-30 16:33N 53°35' E 005°07'10 9.8
2015-Apr-30 15:33N 53°38' E 005°23'10 9.7
2015-Apr-30 14:33N 53°41' E 005°39'1211.6
2015-Apr-30 13:33N 53°45' E 005°57'4814.1
2015-Apr-30 10:10N 53°58' E 007°15'812.8
2015-Apr-30 09:33N 53°60' E 007°28'1313.1
2015-Apr-30 08:33N 54°01' E 007°50'1312.8
2015-Apr-30 07:33N 54°01' E 008°12'1211.6
2015-Apr-30 06:33N 53°58' E 008°31'1111.2
2015-Apr-30 05:34N 53°51' E 008°46'1413.6
2015-Apr-30 04:33N 53°53' E 009°08'1 1.0
2015-Apr-30 03:33N 53°54' E 009°10'1 0.5
2015-Apr-30 02:33N 53°55' E 009°10'3 2.9
2015-Apr-30 01:33N 53°57' E 009°14'7 6.7
2015-Apr-30 00:33N 54°03' E 009°18'7 7.3
2015-Apr-29 23:32N 54°09' E 009°23'22 7.4
2015-Apr-29 20:33N 54°20' E 009°56'5 4.5
2015-Apr-29 19:33N 54°22' E 010°04'3 2.8
2015-Apr-29 18:33N 54°22' E 010°08'4 4.1
2015-Apr-29 17:33N 54°25' E 010°13'1312.7
2015-Apr-29 16:33N 54°33' E 010°30'1413.9
2015-Apr-29 15:32N 54°36' E 010°54'1414.1
2015-Apr-29 14:33N 54°34' E 011°17'1413.8
2015-Apr-29 13:33N 54°28' E 011°39'1313.2
2015-Apr-29 12:33N 54°26' E 012°02'1211.8
2015-Apr-29 11:33N 54°36' E 012°14'1313.4
2015-Apr-29 10:33N 54°44' E 012°33'1313.1
2015-Apr-29 09:33N 54°50' E 012°53'1312.8
2015-Apr-29 08:33N 54°54' E 013°14'1312.9
2015-Apr-29 07:33N 54°58' E 013°35'1312.2
2015-Apr-29 06:30N 55°03' E 013°56'1211.9
2015-Apr-29 05:31N 55°10' E 014°12'1212.4
2015-Apr-29 04:33N 55°19' E 014°25'1212.2
2015-Apr-29 03:33N 55°28' E 014°40'1312.6
2015-Apr-29 02:33N 55°34' E 014°59'1312.8
2015-Apr-29 01:33N 55°40' E 015°20'1313.0
2015-Apr-29 00:33N 55°47' E 015°39'1312.8
2015-Apr-28 23:33N 55°53' E 015°59'32313.3
2015-Apr-27 23:12N 59°36' E 023°16'1013.8
2015-Apr-27 22:27N 59°39' E 023°35'1313.9
2015-Apr-27 21:32N 59°43' E 023°60'1414.0
2015-Apr-27 20:33N 59°47' E 024°26'4212.2
2015-Apr-27 17:08N 60°10' E 025°35'712.4
2015-Apr-27 16:32N 60°17' E 025°33'46 1.4
2015-Apr-26 07:33N 59°44' E 024°30'2014.9
2015-Apr-26 06:15N 59°39' E 023°52'913.4
2015-Apr-26 05:33N 59°35' E 023°35'27213.6
2015-Apr-25 09:33N 56°23' E 017°31'7914.6
2015-Apr-25 04:09N 55°41' E 015°33'914.9
2015-Apr-25 03:33N 55°36' E 015°19'1514.6
2015-Apr-25 02:33N 55°29' E 014°56'1414.5
2015-Apr-25 01:33N 55°21' E 014°36'1514.8
2015-Apr-25 00:33N 55°09' E 014°20'1514.6
2015-Apr-24 23:33N 54°60' E 014°00'1414.5
2015-Apr-24 22:34N 54°54' E 013°37'1514.5
2015-Apr-24 21:33N 54°50' E 013°13'1414.4
2015-Apr-24 20:33N 54°45' E 012°49'1414.1
2015-Apr-24 19:33N 54°39' E 012°28'1413.7
2015-Apr-24 18:33N 54°28' E 012°14'1313.2
2015-Apr-24 17:33N 54°24' E 011°52'  

Dump ship's entire track history